EHLE 200125Z AUTO 20001KT 4300 NSC 10/10 Q1021 EHLE 200055Z AUTO 22003KT 5000 NSC 10/10 Q1021 EHLE 200025Z AUTO 23003KT 7000 NSC 10/10 Q1021 EHLE 192355Z AUTO 25005KT 8000 NSC 11/10 Q1021 EHLE 192325Z AUTO 24005KT 9000 NSC 11/11 Q1021 EHLE 192255Z AUTO 25006KT 7000 NSC 12/11 Q1021 EHLE 192225Z AUTO 25007KT 8000 NSC 12/11 Q1021 EHLE 192155Z AUTO 26007KT 9999 NCD 12/11 Q1021 EHLE 192125Z AUTO 27007KT 9999 NCD 13/12 Q1021 EHLE 192055Z AUTO 27007KT 9999 NSC 13/12 Q1021 EHLE 192025Z AUTO 26005KT 9999 NCD 13/12 Q1021 EHLE 191955Z AUTO 27005KT 230V290 9999 NSC 14/12 Q1020 EHLE 191925Z AUTO 27008KT 9999 NSC 15/13 Q1020 NOSIG EHLE 191855Z AUTO 27009KT 230V300 9999 FEW014 16/13 Q1020 NOSIG EHLE 191825Z AUTO 27012KT 240V300 9999 FEW016 16/13 Q1019 BECMG FEW015 EHLE 191755Z AUTO 27014KT 240V310 9999 FEW011 BKN014 17/14 Q1019 BECMG FEW015 EHLE 191725Z AUTO 27013KT 9999 BKN010 BKN012 17/15 Q1019 NOSIG EHLE 191655Z AUTO 27015KT 230V300 9999 BKN010 OVC033 18/15 Q1018 NOSIG EHLE 191625Z AUTO 28015KT 9999 FEW015 SCT031 BKN037 20/16 Q1018 NOSIG EHLE 191555Z AUTO 25010KT 210V290 9999 SCT020 BKN023 BKN035 20/17 Q1017 NOSIG EHLE 191525Z AUTO 23005KT 180V280 9999 NCD 21/18 Q1017 NOSIG EHLE 191455Z AUTO 15004KT 090V250 9999 NSC 20/17 Q1017 NOSIG EHLE 191425Z AUTO 10005KT 060V140 9999 NSC 19/17 Q1016 NOSIG EHLE 191355Z AUTO 07005KT 030V110 9999 NSC 17/16 Q1016 NOSIG EHLE 191325Z AUTO 03005KT 350V060 9999 -SHRA FEW002 BKN015CB 17/16 Q1017 RERA TEMPO 7000 SHRA EHLE 191255Z AUTO 30008KT 260V340 8000 SHRA BKN015CB 17/17 Q1018 RETS TEMPO 7000 SHRA EHLE 191225Z AUTO 28017KT 250V320 2600 +TSRA FEW006 SCT014 FEW015CB BKN027 17/16 Q1018 REUP BECMG 25012KT 7000 -SHRA EHLE 191155Z AUTO 24005KT 210V280 9999 -RA NSC 22/18 Q1016 TEMPO 26018G28KT 3000 TSRA SCT040CB EHLE 191125Z AUTO 18006KT 140V220 9999 NSC 23/17 Q1016 TEMPO FM1200 26015G25KT 4000 TSRA SCT040CB EHLE 191055Z AUTO 13008KT 090V180 9999 NSC 24/18 Q1016 NOSIG EHLE 191025Z AUTO 14009KT 110V170 9999 NSC 22/18 Q1016 NOSIG EHLE 190955Z AUTO 11008KT 050V130 9999 FEW015CB 20/17 Q1016 TEMPO 6000 SHRA FEW040CB EHLE 190925Z AUTO 06004KT 010V100 9999 NSC 21/16 Q1017 TEMPO 6000 SHRA FEW040CB EHLE 190855Z AUTO 10005KT 050V140 9999 NSC 21/17 Q1017 NOSIG EHLE 190825Z AUTO 10003KT 060V140 9999 NSC 20/16 Q1017 NOSIG EHLE 190755Z AUTO 10003KT 070V130 9999 NSC 19/17 Q1017 NOSIG EHLE 190725Z AUTO VRB02KT 9999 NSC 18/17 Q1016 NOSIG EHLE 190655Z AUTO 17001KT 9999 NSC 18/16 Q1017 NOSIG EHLE 190625Z AUTO VRB02KT 9999 NSC 17/16 Q1017 NOSIG EHLE 190555Z AUTO 26009KT 220V290 9999 FEW015CB 17/16 Q1017 NOSIG EHLE 190525Z AUTO 27007KT 240V300 9999 SHRA BKN015CB 17/15 Q1018 BECMG NSW EHLE 190455Z AUTO 24012KT 9999 SHRA BKN015CB 17/15 Q1018 RETS NOSIG EHLE 190425Z AUTO 23011KT 190V250 9000 SHRA SCT015CB 17/15 Q1017 REDZ EHLE 190355Z AUTO 21012KT 160V240 9999 NSC 18/15 Q1017 RETS EHLE 190325Z AUTO 08004KT 6000 BR NSC 16/15 Q1016 EHLE 190255Z AUTO 05004KT 5000 BR NSC 15/14 Q1016 EHLE 190225Z AUTO 06004KT 6000 NSC 15/14 Q1016 EHLE 190155Z AUTO 04005KT 8000 NSC 15/14 Q1016 EHLE 190125Z AUTO 09003KT 9999 NSC 15/14 Q1017 EHLE 190055Z AUTO 06004KT 9999 NSC 16/14 Q1017 EHLE 190025Z AUTO 07005KT 9999 NSC 15/14 Q1017 EHLE 182355Z AUTO 05003KT 9999 NSC 15/13 Q1018 EHLE 182325Z AUTO 04003KT 9999 NSC 15/13 Q1018 EHLE 182255Z AUTO VRB02KT 9999 NSC 13/12 Q1018 EHLE 182225Z AUTO 11001KT 9999 NSC 14/13 Q1019 EHLE 182155Z AUTO 12003KT 9999 NSC 14/13 Q1019 EHLE 182125Z AUTO 10002KT 9999 NSC 15/13 Q1019 EHLE 182055Z AUTO 09002KT 9999 NSC 15/13 Q1019 EHLE 182025Z AUTO 09002KT 9999 NSC 15/13 Q1020 EHLE 181955Z AUTO 02002KT 9999 NSC 16/13 Q1020 EHLE 181925Z AUTO 36002KT 9999 NSC 17/13 Q1020 NOSIG EHLE 181855Z AUTO 03003KT 9999 NSC 17/13 Q1020 NOSIG EHLE 181825Z AUTO 03004KT 9999 NSC 18/13 Q1020 NOSIG EHLE 181755Z AUTO 01004KT 340V040 9999 NSC 19/13 Q1020 NOSIG EHLE 181725Z AUTO 36006KT 320V030 9999 NSC 19/13 Q1020 NOSIG EHLE 181655Z AUTO 33008KT 300V360 9999 NSC 20/14 Q1020 NOSIG EHLE 181625Z AUTO 34008KT 300V020 9999 NSC 20/13 Q1020 NOSIG EHLE 181555Z AUTO 35008KT 310V030 9999 NSC 20/14 Q1021 NOSIG EHLE 181525Z AUTO 33009KT 300V020 9999 NSC 20/14 Q1021 NOSIG EHLE 181455Z AUTO 33009KT 300V020 9999 NSC 21/14 Q1021 NOSIG EHLE 181425Z AUTO 33008KT 300V010 9999 NSC 21/15 Q1021 NOSIG EHLE 181355Z AUTO 31007KT 270V350 9999 NSC 21/15 Q1021 NOSIG

METAR Messwerte "LELYSTAD" EHLE

Zurück zur Übersicht

Ortsname
Ländercode / m ü. NN
Zeit Temperatur Taupunkt Rel.
Luftfeuchte
Luftdruck:
Altimeter
NN
Station
Wind in Beaufort
(Knoten)
Sichtweite
(Meter)
Wolken
(Meter über Grund)
Wettererscheinung
LELYSTAD
NL -3
Fr 20.05. 03:251010100 %1021
1021
1021
SSW 1 (1)4300Nicht signifikant 
LELYSTAD
NL -3
Fr 20.05. 02:551010100 %1021
1021
1021
SW 2 (3)5000Nicht signifikant 
LELYSTAD
NL -3
Fr 20.05. 02:251010100 %1021
1021
1021
SW 2 (3)7000Nicht signifikant 
LELYSTAD
NL -3
Fr 20.05. 01:55111094 %1021
1021
1021
WSW 2 (5)8000Nicht signifikant 
LELYSTAD
NL -3
Fr 20.05. 01:251111100 %1021
1021
1021
WSW 2 (5)9000Nicht signifikant 
LELYSTAD
NL -3
Fr 20.05. 00:55121194 %1021
1021
1021
WSW 2 (6)7000Nicht signifikant 
LELYSTAD
NL -3
Fr 20.05. 00:25121194 %1021
1021
1021
WSW 3 (7)8000Nicht signifikant 
LELYSTAD
NL -3
Do 19.05. 23:55121194 %1021
1021
1021
W 3 (7)>= 10000  
LELYSTAD
NL -3
Do 19.05. 23:25131294 %1021
1021
1021
W 3 (7)>= 10000  
LELYSTAD
NL -3
Do 19.05. 22:55131294 %1021
1021
1021
W 3 (7)>= 10000Nicht signifikant 
LELYSTAD
NL -3
Do 19.05. 22:25131294 %1021
1021
1021
W 2 (5)>= 10000  
LELYSTAD
NL -3
Do 19.05. 21:55141288 %1020
1020
1020
W 2 (5)
SW - WNW
>= 10000Nicht signifikant 
LELYSTAD
NL -3
Do 19.05. 21:25151388 %1020
1020
1020
W 3 (8)>= 10000Nicht signifikant 
LELYSTAD
NL -3
Do 19.05. 20:55161382 %1020
1020
1020
W 3 (9)
SW - WNW
>= 10000Leicht bewölkt (430) 
LELYSTAD
NL -3
Do 19.05. 20:25161382 %1019
1019
1019
W 4 (12)
WSW - WNW
>= 10000Leicht bewölkt (490) 
LELYSTAD
NL -3
Do 19.05. 19:55171482 %1019
1019
1019
W 4 (14)
WSW - NW
>= 10000Stark bewölkt (430)
Leicht bewölkt (340)
 
LELYSTAD
NL -3
Do 19.05. 19:25171588 %1019
1019
1019
W 4 (13)>= 10000Stark bewölkt (370)
Stark bewölkt (300)
 
LELYSTAD
NL -3
Do 19.05. 18:55181583 %1018
1018
1018
W 4 (15)
SW - WNW
>= 10000Bedeckt (1000)
Stark bewölkt (300)
 
LELYSTAD
NL -3
Do 19.05. 18:25201678 %1018
1018
1018
W 4 (15)>= 10000Stark bewölkt (1100)
Wolkig (940)
Leicht bewölkt (460)
 
LELYSTAD
NL -3
Do 19.05. 17:55201783 %1017
1017
1017
WSW 3 (10)
SSW - WNW
>= 10000Stark bewölkt (1100)
Stark bewölkt (700)
Wolkig (610)
 
LELYSTAD
NL -3
Do 19.05. 17:25211883 %1017
1017
1017
SW 2 (5)
S - W
>= 10000  
LELYSTAD
NL -3
Do 19.05. 16:55201783 %1017
1017
1017
SSO 2 (4)
O - WSW
>= 10000Nicht signifikant 
LELYSTAD
NL -3
Do 19.05. 16:25191788 %1016
1016
1016
O 2 (5)
ONO - SO
>= 10000Nicht signifikant 
LELYSTAD
NL -3
Do 19.05. 15:55171694 %1016
1016
1016
ONO 2 (5)
NNO - OSO
>= 10000Nicht signifikant 
LELYSTAD
NL -3
Do 19.05. 15:25171694 %1017
1017
1017
NNO 2 (5)
N - ONO
>= 10000
Bald zeitweise: 7000
Stark bewölkt Cb (460)
Leicht bewölkt (61)
Regen-Schauer (schwach)
Bald zeitweise: Regen-Schauer
LELYSTAD
NL -3
Do 19.05. 14:551717100 %1018
1018
1018
WNW 3 (8)
W - NNW
8000
Bald zeitweise: 7000
Stark bewölkt Cb (460)Regen-Schauer
LELYSTAD
NL -3
Do 19.05. 14:25171694 %1018
1018
1018
W 5 (17)
WSW - NW
Bald Übergang zu:
WSW 4 (12)
2600
Bald Übergang zu: 7000
Stark bewölkt (820)
Leicht bewölkt Cb (460)
Wolkig (430)
Leicht bewölkt (180)
Gewitter mit Regen (stark)
Bald Übergang zu: Regen-Schauer (schwach)
LELYSTAD
NL -3
Do 19.05. 13:55221878 %1016
1016
1016
WSW 2 (5)
SSW - W
Bald zeitweise:
W 5 (18) - 7 (28)
>= 10000
Bald zeitweise: 3000
Nicht signifikantRegen (schwach)
Bald zeitweise: Gewitter mit Regen
LELYSTAD
NL -3
Do 19.05. 13:25231769 %1016
1016
1016
S 2 (6)
SO - SW
Ab 14:00 zeitweise:
W 4 (15) - 6 (25)
>= 10000
Ab 14:00 zeitweise: 4000
Nicht signifikant Ab 14:00 zeitweise: Gewitter mit Regen
LELYSTAD
NL -3
Do 19.05. 12:55241869 %1016
1016
1016
SO 3 (8)
O - S
>= 10000Nicht signifikant 
LELYSTAD
NL -3
Do 19.05. 12:25221878 %1016
1016
1016
SO 3 (9)
OSO - S
>= 10000Nicht signifikant 
LELYSTAD
NL -3
Do 19.05. 11:55201783 %1016
1016
1016
OSO 3 (8)
NO - SO
>= 10000
Bald zeitweise: 6000
Leicht bewölkt Cb (460) Bald zeitweise: Regen-Schauer
LELYSTAD
NL -3
Do 19.05. 11:25211673 %1017
1017
1017
ONO 2 (4)
N - O
>= 10000
Bald zeitweise: 6000
Nicht signifikant Bald zeitweise: Regen-Schauer
LELYSTAD
NL -3
Do 19.05. 10:55211778 %1017
1017
1017
O 2 (5)
NO - SO
>= 10000Nicht signifikant 
LELYSTAD
NL -3
Do 19.05. 10:25201678 %1017
1017
1017
O 2 (3)
ONO - SO
>= 10000Nicht signifikant 
LELYSTAD
NL -3
Do 19.05. 09:55191788 %1017
1017
1017
O 2 (3)
ONO - SO
>= 10000Nicht signifikant 
LELYSTAD
NL -3
Do 19.05. 09:25181794 %1016
1016
1016
Uml 1 (2)>= 10000Nicht signifikant 
LELYSTAD
NL -3
Do 19.05. 08:55181688 %1017
1017
1017
S 1 (1)>= 10000Nicht signifikant 
LELYSTAD
NL -3
Do 19.05. 08:25171694 %1017
1017
1017
Uml 1 (2)>= 10000Nicht signifikant 
LELYSTAD
NL -3
Do 19.05. 07:55171694 %1017
1017
1017
W 3 (9)
SW - WNW
>= 10000Leicht bewölkt Cb (460) 
LELYSTAD
NL -3
Do 19.05. 07:25171588 %1018
1018
1018
W 3 (7)
WSW - WNW
>= 10000Stark bewölkt Cb (460)Regen-Schauer
LELYSTAD
NL -3
Do 19.05. 06:55171588 %1018
1018
1018
WSW 4 (12)>= 10000Stark bewölkt Cb (460)Regen-Schauer
LELYSTAD
NL -3
Do 19.05. 06:25171588 %1017
1017
1017
SW 4 (11)
S - WSW
9000Wolkig Cb (460)Regen-Schauer
LELYSTAD
NL -3
Do 19.05. 05:55181583 %1017
1017
1017
SSW 4 (12)
SSO - WSW
>= 10000Nicht signifikant 
LELYSTAD
NL -3
Do 19.05. 05:25161594 %1016
1016
1016
O 2 (4)6000Nicht signifikantNebeldunst
LELYSTAD
NL -3
Do 19.05. 04:55151494 %1016
1016
1016
NO 2 (4)5000Nicht signifikantNebeldunst
LELYSTAD
NL -3
Do 19.05. 04:25151494 %1016
1016
1016
ONO 2 (4)6000Nicht signifikant 
LELYSTAD
NL -3
Do 19.05. 03:55151494 %1016
1016
1016
NO 2 (5)8000Nicht signifikant 
LELYSTAD
NL -3
Do 19.05. 03:25151494 %1017
1017
1017
O 2 (3)>= 10000Nicht signifikant 
LELYSTAD
NL -3
Do 19.05. 02:55161488 %1017
1017
1017
ONO 2 (4)>= 10000Nicht signifikant 
LELYSTAD
NL -3
Do 19.05. 02:25151494 %1017
1017
1017
ONO 2 (5)>= 10000Nicht signifikant 
LELYSTAD
NL -3
Do 19.05. 01:55151388 %1018
1018
1018
NO 2 (3)>= 10000Nicht signifikant 
LELYSTAD
NL -3
Do 19.05. 01:25151388 %1018
1018
1018
NO 2 (3)>= 10000Nicht signifikant 
LELYSTAD
NL -3
Do 19.05. 00:55131294 %1018
1018
1018
Uml 1 (2)>= 10000Nicht signifikant 
LELYSTAD
NL -3
Do 19.05. 00:25141394 %1019
1019
1019
OSO 1 (1)>= 10000Nicht signifikant 
LELYSTAD
NL -3
Mi 18.05. 23:55141394 %1019
1019
1019
OSO 2 (3)>= 10000Nicht signifikant 
LELYSTAD
NL -3
Mi 18.05. 23:25151388 %1019
1019
1019
O 1 (2)>= 10000Nicht signifikant 
LELYSTAD
NL -3
Mi 18.05. 22:55151388 %1019
1019
1019
O 1 (2)>= 10000Nicht signifikant 
LELYSTAD
NL -3
Mi 18.05. 22:25151388 %1020
1020
1020
O 1 (2)>= 10000Nicht signifikant 
LELYSTAD
NL -3
Mi 18.05. 21:55161382 %1020
1020
1020
NNO 1 (2)>= 10000Nicht signifikant 
LELYSTAD
NL -3
Mi 18.05. 21:25171377 %1020
1020
1020
N 1 (2)>= 10000Nicht signifikant 
LELYSTAD
NL -3
Mi 18.05. 20:55171377 %1020
1020
1020
NNO 2 (3)>= 10000Nicht signifikant 
LELYSTAD
NL -3
Mi 18.05. 20:25181373 %1020
1020
1020
NNO 2 (4)>= 10000Nicht signifikant 
LELYSTAD
NL -3
Mi 18.05. 19:55191368 %1020
1020
1020
N 2 (4)
NNW - NO
>= 10000Nicht signifikant 
LELYSTAD
NL -3
Mi 18.05. 19:25191368 %1020
1020
1020
N 2 (6)
NW - NNO
>= 10000Nicht signifikant 
LELYSTAD
NL -3
Mi 18.05. 18:55201468 %1020
1020
1020
NNW 3 (8)
WNW - N
>= 10000Nicht signifikant 
LELYSTAD
NL -3
Mi 18.05. 18:25201364 %1020
1020
1020
NNW 3 (8)
WNW - NNO
>= 10000Nicht signifikant 
LELYSTAD
NL -3
Mi 18.05. 17:55201468 %1021
1021
1021
N 3 (8)
NW - NNO
>= 10000Nicht signifikant 
LELYSTAD
NL -3
Mi 18.05. 17:25201468 %1021
1021
1021
NNW 3 (9)
WNW - NNO
>= 10000Nicht signifikant 
LELYSTAD
NL -3
Mi 18.05. 16:55211464 %1021
1021
1021
NNW 3 (9)
WNW - NNO
>= 10000Nicht signifikant 
LELYSTAD
NL -3
Mi 18.05. 16:25211569 %1021
1021
1021
NNW 3 (8)
WNW - N
>= 10000Nicht signifikant 
LELYSTAD
NL -3
Mi 18.05. 15:55211569 %1021
1021
1021
NW 3 (7)
W - N
>= 10000Nicht signifikant 

Altimeter: Einstellung am Altimeter (Höhenmesser), die Höhe 0 muss auf diesen Luftdruckwert zeigen, damit das Gerät die Stationshöhe richtig anzeigt.

NN: Luftdruck reduziert auf "Normal Null", auf Meereshöhe, dieser von der Temperatur abhängige Wert wird bisweilen unkorrekt einfach als "Luftdruck" bezeichnet. Eigentlich nur eine fiktive Größe, die es erlaubt, Stationen auf unterschiedlichen Höhen miteinander zu vergleichen.

Station: Realer Luftdruck an der Station.